createdAt,value
2018-02-27T00:00:49.132Z,0
2018-02-27T00:01:29.405Z,0
2018-02-27T00:02:09.752Z,0
2018-02-27T00:02:50.221Z,0
2018-02-27T00:03:30.597Z,0
2018-02-27T00:04:11.076Z,0
2018-02-27T00:04:51.442Z,0
2018-02-27T00:12:38.909Z,0
2018-02-27T00:13:19.241Z,0
2018-02-27T00:13:59.703Z,0
2018-02-27T00:14:40.088Z,0
2018-02-27T00:15:20.563Z,0
2018-02-27T00:16:00.861Z,0
2018-02-27T00:16:41.250Z,0
2018-02-27T00:17:21.657Z,0
2018-02-27T00:18:02.125Z,0
2018-02-27T00:18:42.456Z,0
2018-02-27T00:22:45.894Z,0
2018-02-27T00:23:26.172Z,0
2018-02-27T00:24:06.571Z,0
2018-02-27T00:28:14.913Z,0
2018-02-27T00:34:50.454Z,0
2018-02-27T00:37:06.762Z,0
2018-02-27T00:40:23.535Z,0
2018-02-27T00:41:03.580Z,0
2018-02-27T00:41:43.964Z,0
2018-02-27T00:42:25.089Z,0
2018-02-27T00:43:05.350Z,0
2018-02-27T00:43:45.860Z,0
2018-02-27T00:44:26.129Z,0
2018-02-27T00:45:06.489Z,0
2018-02-27T00:45:46.919Z,0
2018-02-27T00:46:27.269Z,0
2018-02-27T00:56:11.675Z,0
2018-02-27T00:56:52.055Z,0
2018-02-27T00:57:34.480Z,0
2018-02-27T00:58:15.928Z,0
2018-02-27T00:58:57.515Z,0
2018-02-27T00:59:42.061Z,0
2018-02-27T01:00:23.372Z,0
2018-02-27T01:01:07.125Z,0
2018-02-27T01:01:48.459Z,0
2018-02-27T01:02:29.337Z,0
2018-02-27T01:03:11.415Z,0
2018-02-27T01:03:51.721Z,0
2018-02-27T01:04:32.145Z,0
2018-02-27T01:05:12.617Z,0
2018-02-27T01:05:53.866Z,0
2018-02-27T01:06:36.938Z,0
2018-02-27T01:07:17.634Z,0
2018-02-27T01:07:58.902Z,0
2018-02-27T01:08:39.245Z,0
2018-02-27T01:09:20.911Z,0
2018-02-27T01:10:02.534Z,0
2018-02-27T01:10:42.956Z,0
2018-02-27T01:11:23.346Z,0
2018-02-27T01:12:04.657Z,0
2018-02-27T01:12:46.283Z,0
2018-02-27T01:13:28.611Z,0
2018-02-27T01:14:11.942Z,0
2018-02-27T01:14:56.253Z,0
2018-02-27T01:15:37.463Z,0
2018-02-27T01:16:18.016Z,0
2018-02-27T01:16:59.000Z,0
2018-02-27T01:17:40.987Z,0
2018-02-27T01:18:22.762Z,0
2018-02-27T01:19:05.483Z,0
2018-02-27T01:19:46.148Z,0
2018-02-27T01:20:28.450Z,0
2018-02-27T01:21:13.053Z,0
2018-02-27T01:21:53.516Z,0
2018-02-27T01:22:39.152Z,0
2018-02-27T01:23:17.545Z,0
2018-02-27T01:23:58.282Z,0
2018-02-27T01:24:38.712Z,0
2018-02-27T01:25:19.213Z,0
2018-02-27T01:26:00.837Z,0
2018-02-27T01:26:43.428Z,0
2018-02-27T01:27:23.705Z,0
2018-02-27T01:28:05.053Z,0
2018-02-27T01:28:45.415Z,0
2018-02-27T01:29:29.387Z,0
2018-02-27T01:30:11.578Z,0
2018-02-27T01:30:54.127Z,0
2018-02-27T01:31:35.586Z,0
2018-02-27T01:32:15.883Z,0
2018-02-27T01:32:56.995Z,0
2018-02-27T01:37:01.402Z,0
2018-02-27T01:37:41.884Z,0
2018-02-27T01:38:22.290Z,0
2018-02-27T01:39:02.640Z,0
2018-02-27T01:39:43.112Z,0
2018-02-27T01:40:23.468Z,0
2018-02-27T01:41:03.861Z,0
2018-02-27T01:41:44.295Z,0
2018-02-27T01:42:24.657Z,0
2018-02-27T01:43:05.148Z,0
2018-02-27T01:43:45.622Z,0
2018-02-27T01:44:26.011Z,0
2018-02-27T01:45:06.447Z,0
2018-02-27T01:45:46.805Z,0
2018-02-27T01:46:27.268Z,0
2018-02-27T01:54:03.039Z,0
2018-02-27T01:54:43.386Z,0
2018-02-27T01:58:48.003Z,0
2018-02-27T02:00:49.593Z,0
2018-02-27T02:01:38.012Z,0
2018-02-27T02:02:17.708Z,0
2018-02-27T02:02:59.908Z,0
2018-02-27T02:03:42.846Z,0
2018-02-27T02:04:25.967Z,0
2018-02-27T02:05:10.728Z,0
2018-02-27T02:05:55.787Z,0
2018-02-27T02:08:35.529Z,0
2018-02-27T02:09:15.934Z,0
2018-02-27T02:09:57.099Z,0
2018-02-27T02:10:37.480Z,0
2018-02-27T02:11:17.848Z,0
2018-02-27T02:11:58.224Z,0
2018-02-27T02:12:38.724Z,0
2018-02-27T02:13:19.137Z,0
2018-02-27T02:13:59.541Z,0
2018-02-27T02:14:39.899Z,0
2018-02-27T02:21:17.126Z,0
2018-02-27T02:21:58.137Z,0
2018-02-27T02:22:40.428Z,0
2018-02-27T02:23:23.104Z,0
2018-02-27T02:24:03.498Z,0
2018-02-27T02:24:45.655Z,0
2018-02-27T02:25:27.600Z,0
2018-02-27T02:26:15.519Z,0
2018-02-27T02:26:54.911Z,0
2018-02-27T02:27:36.277Z,0
2018-02-27T02:28:20.929Z,0
2018-02-27T02:30:17.049Z,0
2018-02-27T02:30:57.413Z,0
2018-02-27T02:31:38.026Z,0
2018-02-27T02:32:22.032Z,0
2018-02-27T02:33:02.336Z,0
2018-02-27T02:33:44.432Z,0
2018-02-27T02:34:27.322Z,0
2018-02-27T02:36:54.274Z,0
2018-02-27T02:37:33.470Z,0
2018-02-27T02:38:17.026Z,0
2018-02-27T02:39:01.933Z,0
2018-02-27T02:39:42.318Z,0
2018-02-27T02:40:22.864Z,0
2018-02-27T02:41:07.407Z,0
2018-02-27T02:41:49.333Z,0
2018-02-27T02:42:30.535Z,0
2018-02-27T02:43:11.381Z,0
2018-02-27T02:43:52.327Z,0
2018-02-27T02:44:34.403Z,0
2018-02-27T02:45:18.326Z,0
2018-02-27T02:45:59.960Z,0
2018-02-27T02:46:40.910Z,0
2018-02-27T02:47:22.893Z,0
2018-02-27T02:48:04.066Z,0
2018-02-27T02:48:48.063Z,0
2018-02-27T02:49:29.764Z,0
2018-02-27T02:50:10.627Z,0
2018-02-27T02:50:51.580Z,0
2018-02-27T02:51:31.773Z,0
2018-02-27T02:52:15.025Z,0
2018-02-27T02:52:56.213Z,0
2018-02-27T02:53:45.881Z,0
2018-02-27T02:54:27.138Z,0
2018-02-27T02:55:09.078Z,0
2018-02-27T02:55:53.384Z,0
2018-02-27T02:56:35.971Z,0
2018-02-27T02:57:18.180Z,0
2018-02-27T02:58:00.541Z,0
2018-02-27T02:58:45.579Z,0
2018-02-27T02:59:26.310Z,0
2018-02-27T03:00:18.232Z,0
2018-02-27T03:00:58.597Z,0
2018-02-27T03:01:39.673Z,0
2018-02-27T03:02:20.973Z,0
2018-02-27T03:03:03.316Z,0
2018-02-27T03:03:48.520Z,0
2018-02-27T03:04:35.187Z,0
2018-02-27T03:05:16.468Z,0
2018-02-27T03:05:57.093Z,0
2018-02-27T03:06:39.533Z,0
2018-02-27T03:07:23.859Z,0
2018-02-27T03:08:04.866Z,0
2018-02-27T03:08:46.261Z,0
2018-02-27T03:09:27.037Z,0
2018-02-27T03:10:08.603Z,0
2018-02-27T03:10:50.064Z,0
2018-02-27T03:11:36.226Z,0
2018-02-27T03:12:18.984Z,0
2018-02-27T03:13:01.648Z,0
2018-02-27T03:13:45.451Z,0
2018-02-27T03:14:27.760Z,0
2018-02-27T03:19:28.316Z,0
2018-02-27T03:20:13.420Z,0
2018-02-27T03:20:57.004Z,0
2018-02-27T03:21:39.365Z,0
2018-02-27T03:27:27.485Z,0
2018-02-27T03:28:07.714Z,0
2018-02-27T03:28:48.651Z,0
2018-02-27T03:29:29.095Z,0
2018-02-27T03:35:34.025Z,0
2018-02-27T03:39:13.001Z,0
2018-02-27T03:41:08.845Z,0
2018-02-27T03:46:55.158Z,0
2018-02-27T03:47:35.317Z,0
2018-02-27T03:48:15.671Z,0
2018-02-27T03:48:56.064Z,0
2018-02-27T03:49:36.497Z,0
2018-02-27T03:50:16.946Z,0
2018-02-27T03:50:57.444Z,0
2018-02-27T03:51:37.828Z,0
2018-02-27T03:59:21.532Z,0
2018-02-27T04:00:01.885Z,0
2018-02-27T04:00:42.269Z,0
2018-02-27T04:01:22.784Z,0
2018-02-27T04:02:03.140Z,0
2018-02-27T04:02:43.532Z,0
2018-02-27T04:03:23.941Z,0
2018-02-27T04:04:04.361Z,0
2018-02-27T04:04:44.763Z,0
2018-02-27T05:08:01.716Z,0
2018-02-27T05:11:46.528Z,0
2018-02-27T05:30:42.346Z,0
2018-02-27T05:47:57.438Z,0
2018-02-27T05:49:56.351Z,0
2018-02-27T07:37:52.983Z,4216
2018-02-27T07:38:41.732Z,4220
2018-02-27T08:07:56.623Z,2656
2018-02-27T08:08:37.497Z,1716
2018-02-27T08:09:18.215Z,1848
2018-02-27T08:09:59.765Z,1908
2018-02-27T08:10:40.193Z,1892
2018-02-27T08:11:20.871Z,1888
2018-02-27T08:12:02.200Z,1844
2018-02-27T08:12:43.881Z,1856
2018-02-27T08:13:25.516Z,1864
2018-02-27T08:14:06.019Z,1836
2018-02-27T08:14:46.704Z,1840
2018-02-27T08:15:28.066Z,1832
2018-02-27T08:16:09.660Z,1788
2018-02-27T08:16:50.076Z,1776
2018-02-27T08:24:10.212Z,1764
2018-02-27T08:26:21.460Z,1788
2018-02-27T08:27:02.011Z,1776
2018-02-27T08:27:42.526Z,1764
2018-02-27T08:28:24.458Z,1760
2018-02-27T08:29:05.453Z,1760
2018-02-27T08:29:46.929Z,1748
2018-02-27T08:30:33.672Z,1728
2018-02-27T08:31:13.952Z,1740
2018-02-27T08:31:55.172Z,1760
2018-02-27T08:32:40.404Z,1756
2018-02-27T08:33:21.427Z,1756
2018-02-27T08:34:01.944Z,1776
2018-02-27T08:52:49.766Z,1684
2018-02-27T08:53:30.521Z,1676
2018-02-27T08:54:11.832Z,1676
2018-02-27T08:56:32.707Z,1664
2018-02-27T08:59:18.245Z,1624
2018-02-27T09:02:23.790Z,1632
2018-02-27T09:03:05.041Z,1628
2018-02-27T09:03:48.414Z,1632
2018-02-27T09:04:29.648Z,1624
2018-02-27T09:05:10.699Z,1628
2018-02-27T09:05:51.113Z,1636
2018-02-27T09:06:31.598Z,1624
2018-02-27T09:12:25.388Z,1632
2018-02-27T09:13:13.407Z,1640
2018-02-27T09:13:58.925Z,1636
2018-02-27T09:14:40.917Z,1628
2018-02-27T09:15:22.237Z,1616
2018-02-27T09:16:05.178Z,1628
2018-02-27T09:16:46.767Z,1628
2018-02-27T09:17:27.802Z,1616
2018-02-27T09:18:09.519Z,1608
2018-02-27T09:18:52.401Z,1612
2018-02-27T09:19:34.217Z,1612
2018-02-27T09:20:16.070Z,1600
2018-02-27T09:20:57.399Z,1604
2018-02-27T09:23:17.778Z,1608
2018-02-27T09:24:05.259Z,1612
2018-02-27T09:24:48.155Z,1604
2018-02-27T09:25:28.329Z,1600
2018-02-27T09:26:09.849Z,1600
2018-02-27T09:26:51.218Z,1596
2018-02-27T09:27:31.781Z,1588
2018-02-27T09:28:13.260Z,1580
2018-02-27T09:28:53.757Z,1584
2018-02-27T09:29:34.416Z,1592
2018-02-27T09:30:17.536Z,1576
2018-02-27T09:30:59.890Z,1580
2018-02-27T09:31:41.182Z,1588
2018-02-27T09:32:22.202Z,1584
2018-02-27T09:33:04.051Z,1596
2018-02-27T09:33:45.057Z,1592
2018-02-27T09:34:25.820Z,1580
2018-02-27T09:35:09.021Z,1588
2018-02-27T09:35:51.514Z,1580
2018-02-27T09:36:35.140Z,1580
2018-02-27T09:37:20.035Z,1572
2018-02-27T09:38:00.574Z,1568
2018-02-27T09:38:41.478Z,1568
2018-02-27T09:39:22.801Z,1564
2018-02-27T09:40:04.290Z,1568
2018-02-27T09:40:46.077Z,1556
2018-02-27T09:41:28.012Z,1568
2018-02-27T09:42:08.576Z,1560
2018-02-27T09:42:49.070Z,1556
2018-02-27T09:43:30.187Z,1568
2018-02-27T09:44:12.767Z,1564
2018-02-27T09:44:53.542Z,1568
2018-02-27T09:45:35.418Z,1548
2018-02-27T09:46:16.574Z,1552
2018-02-27T09:46:58.964Z,1544
2018-02-27T09:47:39.300Z,1556
2018-02-27T09:48:19.691Z,1556
2018-02-27T09:49:06.103Z,1556
2018-02-27T09:49:48.985Z,1552
2018-02-27T09:50:29.783Z,1548
2018-02-27T09:51:10.496Z,1548
2018-02-27T09:51:53.480Z,1552
2018-02-27T09:52:33.487Z,1540
2018-02-27T09:53:14.553Z,1532
2018-02-27T09:53:56.247Z,1532
2018-02-27T09:54:38.090Z,1532
2018-02-27T09:55:19.206Z,1524
2018-02-27T09:56:02.013Z,1520
2018-02-27T09:56:46.529Z,1516
2018-02-27T09:59:09.712Z,1524
2018-02-27T09:59:50.414Z,1516
2018-02-27T10:00:30.980Z,1508
2018-02-27T10:01:14.771Z,1508
2018-02-27T10:01:55.797Z,1520
2018-02-27T10:02:38.089Z,1516
2018-02-27T10:03:18.981Z,1516
2018-02-27T10:04:00.048Z,1512
2018-02-27T10:04:41.322Z,1512
2018-02-27T10:05:23.991Z,1508
2018-02-27T10:06:04.761Z,1508
2018-02-27T10:06:46.424Z,1504
2018-02-27T10:07:28.500Z,1504
2018-02-27T10:08:10.552Z,1500
2018-02-27T10:08:50.981Z,1512
2018-02-27T10:48:19.712Z,1392
2018-02-27T10:49:00.527Z,1380
2018-02-27T10:49:44.028Z,1388
2018-02-27T10:50:26.079Z,1384
2018-02-27T10:51:06.782Z,1380
2018-02-27T10:51:51.259Z,1388
2018-02-27T10:52:32.830Z,1388
2018-02-27T10:53:13.787Z,1384
2018-02-27T10:53:57.801Z,1380
2018-02-27T10:54:37.842Z,1376
2018-02-27T10:55:19.604Z,1376
2018-02-27T10:56:03.106Z,1364
2018-02-27T10:56:45.563Z,1364
2018-02-27T11:02:27.850Z,1344
2018-02-27T11:03:10.757Z,1352
2018-02-27T11:03:52.128Z,1356
2018-02-27T11:04:33.875Z,1340
2018-02-27T11:05:14.302Z,1348
2018-02-27T11:05:59.952Z,1336
2018-02-27T11:06:40.451Z,1344
2018-02-27T11:07:24.393Z,1344
2018-02-27T11:08:09.601Z,1344
2018-02-27T11:08:53.702Z,1332
2018-02-27T11:09:33.145Z,1340
2018-02-27T11:10:14.556Z,1344
2018-02-27T11:10:55.500Z,1332
2018-02-27T11:11:36.672Z,1340
2018-02-27T11:12:18.748Z,1324
2018-02-27T11:12:58.938Z,1336
2018-02-27T11:13:39.568Z,1344
2018-02-27T11:14:21.198Z,1340
2018-02-27T11:15:02.194Z,1336
2018-02-27T11:15:43.501Z,1328
2018-02-27T11:16:24.200Z,1336
2018-02-27T11:17:04.889Z,1336
2018-02-27T11:17:45.453Z,1328
2018-02-27T11:18:26.786Z,1328
2018-02-27T11:19:07.460Z,1320
2018-02-27T11:19:50.545Z,1316
2018-02-27T11:20:32.795Z,1324
2018-02-27T11:21:14.305Z,1324
2018-02-27T11:21:56.420Z,1316
2018-02-27T11:22:37.355Z,1312
2018-02-27T11:23:18.185Z,1312
2018-02-27T11:23:58.924Z,1308
2018-02-27T11:24:39.723Z,1304
2018-02-27T11:25:21.494Z,1308
2018-02-27T11:26:02.973Z,1312
2018-02-27T11:26:43.611Z,1308
2018-02-27T11:27:25.051Z,1316
2018-02-27T11:28:04.787Z,1308
2018-02-27T11:28:47.340Z,1308
2018-02-27T11:29:28.454Z,1308
2018-02-27T11:30:10.791Z,1308
2018-02-27T11:30:52.559Z,1300
2018-02-27T11:31:33.449Z,1300
2018-02-27T11:32:14.374Z,1300
2018-02-27T11:32:56.634Z,1292
2018-02-27T11:33:37.691Z,1300
2018-02-27T11:34:18.128Z,1296
2018-02-27T11:34:59.632Z,1296
2018-02-27T11:35:39.625Z,1292
2018-02-27T11:36:20.953Z,1296
2018-02-27T11:39:00.453Z,1284
2018-02-27T11:39:41.040Z,1292
2018-02-27T11:40:21.591Z,1288
2018-02-27T11:41:02.357Z,1288
2018-02-27T11:41:43.728Z,1280
2018-02-27T11:42:24.776Z,1280
2018-02-27T11:43:07.158Z,1280
2018-02-27T11:43:47.676Z,1276
2018-02-27T11:44:28.701Z,1272
2018-02-27T11:45:09.468Z,1268
2018-02-27T11:45:49.660Z,1268
2018-02-27T11:46:31.129Z,1264
2018-02-27T11:47:11.609Z,1268
2018-02-27T11:47:55.119Z,1276
2018-02-27T11:48:37.463Z,1264
2018-02-27T11:49:18.760Z,1264
2018-02-27T11:50:00.446Z,1260
2018-02-27T11:50:40.771Z,1272
2018-02-27T11:51:21.146Z,1260
2018-02-27T11:52:01.644Z,1264
2018-02-27T11:52:42.060Z,1256
2018-02-27T11:53:22.800Z,1260
2018-02-27T11:54:04.945Z,1256
2018-02-27T11:54:45.303Z,1268
2018-02-27T11:55:25.782Z,1272
2018-02-27T11:56:07.058Z,1324
2018-02-27T11:56:47.089Z,1404
2018-02-27T11:57:27.489Z,1352
2018-02-27T11:58:08.437Z,1288
2018-02-27T11:58:51.057Z,1256
2018-02-27T11:59:33.081Z,1256
2018-02-27T12:00:15.154Z,1260
2018-02-27T12:00:55.227Z,1248
2018-02-27T12:01:37.242Z,1252
2018-02-27T12:02:18.363Z,1252
2018-02-27T12:02:59.115Z,1260
2018-02-27T12:03:40.382Z,1244
2018-02-27T12:04:21.381Z,1252
2018-02-27T12:05:01.902Z,1248
2018-02-27T12:05:42.190Z,1236
2018-02-27T12:06:22.634Z,1240
2018-02-27T12:07:03.762Z,1240
2018-02-27T12:07:44.284Z,1248
2018-02-27T12:08:25.283Z,1248
2018-02-27T12:09:06.789Z,1252
2018-02-27T12:09:48.313Z,1236
2018-02-27T12:10:28.961Z,1232
2018-02-27T12:11:09.416Z,1232
2018-02-27T12:11:50.586Z,1232
2018-02-27T12:12:32.611Z,1228
2018-02-27T12:13:12.363Z,1228
2018-02-27T12:13:53.988Z,1228
2018-02-27T12:14:35.349Z,1224
2018-02-27T12:15:14.912Z,1220
2018-02-27T12:15:55.318Z,1216
2018-02-27T12:16:35.837Z,1220
2018-02-27T12:17:16.324Z,1212
2018-02-27T12:17:56.880Z,1216
2018-02-27T12:18:37.322Z,1204
2018-02-27T12:19:18.174Z,1216
2018-02-27T12:19:58.514Z,1216
2018-02-27T12:20:38.947Z,1220
2018-02-27T12:21:19.333Z,1216
2018-02-27T12:22:00.126Z,1220
2018-02-27T12:22:40.629Z,1208
2018-02-27T12:23:21.089Z,1204
2018-02-27T12:24:02.387Z,1212
2018-02-27T12:24:42.795Z,1188
2018-02-27T12:25:24.428Z,1216
2018-02-27T12:26:05.035Z,1208
2018-02-27T12:26:46.196Z,1200
2018-02-27T12:27:28.643Z,1192
2018-02-27T12:28:09.050Z,1192
2018-02-27T12:28:49.549Z,1196
2018-02-27T12:29:29.885Z,1200
2018-02-27T12:30:10.596Z,1212
2018-02-27T12:30:52.334Z,1196
2018-02-27T12:31:32.953Z,1204
2018-02-27T12:32:13.584Z,1196
2018-02-27T12:32:54.212Z,1200
2018-02-27T12:33:34.922Z,1192
2018-02-27T12:34:15.569Z,1192
2018-02-27T12:34:57.137Z,1196
2018-02-27T12:35:38.359Z,1196
2018-02-27T12:36:21.486Z,1188
2018-02-27T12:37:01.908Z,1200
2018-02-27T12:37:43.735Z,1204
2018-02-27T12:38:24.194Z,1208
2018-02-27T12:39:06.241Z,1212
2018-02-27T12:39:46.513Z,1220
2018-02-27T12:40:27.081Z,1208
2018-02-27T12:41:07.578Z,1216
2018-02-27T12:41:48.435Z,1236
2018-02-27T12:42:28.800Z,1328
2018-02-27T12:43:10.145Z,1420
2018-02-27T12:46:15.267Z,1180
2018-02-27T12:46:55.673Z,1176
2018-02-27T12:47:36.070Z,1176
2018-02-27T12:48:16.469Z,1176
2018-02-27T12:48:57.169Z,1180
2018-02-27T12:49:37.667Z,1188
2018-02-27T12:50:20.696Z,1208
2018-02-27T12:51:01.116Z,1188
2018-02-27T12:51:41.839Z,1176
2018-02-27T12:52:22.222Z,1144
2018-02-27T12:53:03.126Z,1148
2018-02-27T12:53:43.548Z,1136
2018-02-27T12:54:25.105Z,1140
2018-02-27T12:55:05.527Z,1148
2018-02-27T12:55:45.828Z,1152
2018-02-27T12:56:26.262Z,1152
2018-02-27T12:57:06.652Z,1148
2018-02-27T12:57:47.030Z,1160
2018-02-27T12:58:27.846Z,1172
2018-02-27T12:59:09.698Z,1184
2018-02-27T12:59:49.701Z,1160
2018-02-27T13:00:30.997Z,1156
2018-02-27T13:01:11.335Z,1160
2018-02-27T13:01:51.721Z,1152
2018-02-27T13:02:32.737Z,1152
2018-02-27T13:05:14.568Z,1176
2018-02-27T13:05:55.578Z,1188
2018-02-27T13:06:37.361Z,1196
2018-02-27T13:07:22.182Z,1212
2018-02-27T13:08:03.586Z,1192
2018-02-27T13:08:44.093Z,1188
2018-02-27T13:09:24.606Z,1188
2018-02-27T13:10:06.131Z,1192
2018-02-27T13:10:46.930Z,1204
2018-02-27T13:11:28.220Z,1264
2018-02-27T13:12:09.943Z,1348
2018-02-27T13:12:50.883Z,1404
2018-02-27T13:13:31.813Z,1312
2018-02-27T13:14:12.848Z,1232
2018-02-27T13:14:53.822Z,1220
2018-02-27T13:15:34.417Z,1256
2018-02-27T13:16:15.536Z,1248
2018-02-27T13:16:56.798Z,1176
2018-02-27T13:17:37.220Z,1180
2018-02-27T13:18:20.494Z,1184
2018-02-27T13:20:55.954Z,1220
2018-02-27T13:21:36.270Z,1168
2018-02-27T13:22:18.893Z,1172
2018-02-27T13:22:59.793Z,1168
2018-02-27T13:23:41.885Z,1168
2018-02-27T13:24:22.956Z,1168
2018-02-27T13:25:03.803Z,1168
2018-02-27T13:25:44.736Z,1164
2018-02-27T13:26:27.162Z,1164
2018-02-27T13:27:06.580Z,1156
2018-02-27T13:27:48.874Z,1136
2018-02-27T13:28:30.164Z,1132
2018-02-27T13:29:10.537Z,1124
2018-02-27T13:29:51.066Z,1116
2018-02-27T13:30:32.393Z,1116
2018-02-27T13:31:14.077Z,1092
2018-02-27T13:31:55.308Z,1120
2018-02-27T13:32:36.446Z,1136
2018-02-27T13:33:19.412Z,1128
2018-02-27T13:34:00.774Z,1152
2018-02-27T13:34:42.592Z,1148
2018-02-27T13:35:23.049Z,1144
2018-02-27T13:36:04.434Z,1152
2018-02-27T13:36:46.031Z,1148
2018-02-27T13:37:26.900Z,1152
2018-02-27T13:38:07.359Z,1156
2018-02-27T13:38:49.933Z,1128
2018-02-27T13:39:30.863Z,1132
2018-02-27T13:40:11.884Z,1164
2018-02-27T13:40:56.031Z,964
2018-02-27T13:41:40.189Z,1128
2018-02-27T13:42:21.528Z,828
2018-02-27T13:43:03.961Z,856
2018-02-27T13:43:46.588Z,1136
2018-02-27T13:44:31.420Z,1236
2018-02-27T13:45:13.696Z,1240
2018-02-27T13:45:55.128Z,1248
2018-02-27T13:46:38.459Z,1260
2018-02-27T13:47:23.506Z,1268
2018-02-27T13:48:07.846Z,1296
2018-02-27T13:48:48.907Z,1340
2018-02-27T13:49:30.095Z,1408
2018-02-27T13:50:11.466Z,1396
2018-02-27T13:50:53.344Z,1340
2018-02-27T13:51:35.099Z,1300
2018-02-27T13:52:16.037Z,1228
2018-02-27T13:52:56.899Z,1184
2018-02-27T13:53:37.923Z,1148
2018-02-27T13:54:18.894Z,1148
2018-02-27T13:55:01.270Z,1156
2018-02-27T13:55:41.946Z,1172
2018-02-27T13:56:22.704Z,1184
2018-02-27T13:57:03.850Z,1184
2018-02-27T13:57:48.040Z,1172
2018-02-27T13:58:27.730Z,1188
2018-02-27T13:59:08.886Z,1184
2018-02-27T13:59:50.043Z,1192
2018-02-27T14:00:32.994Z,1204
2018-02-27T14:01:15.509Z,1220
2018-02-27T14:01:55.287Z,1228
2018-02-27T14:02:37.720Z,1244
2018-02-27T14:03:20.968Z,1264
2018-02-27T14:04:03.196Z,1288
2018-02-27T14:04:46.178Z,1324
2018-02-27T14:05:27.651Z,1360
2018-02-27T14:06:10.207Z,1404
2018-02-27T14:06:49.854Z,1480
2018-02-27T14:07:31.930Z,1492
2018-02-27T14:08:12.430Z,1368
2018-02-27T14:08:52.910Z,1068
2018-02-27T14:09:33.425Z,1312
2018-02-27T14:10:16.028Z,1360
2018-02-27T14:10:57.959Z,1404
2018-02-27T14:11:42.115Z,1428
2018-02-27T14:12:22.779Z,1404
2018-02-27T14:13:06.014Z,1416
2018-02-27T14:13:47.456Z,1404
2018-02-27T14:14:34.985Z,1392
2018-02-27T14:15:15.764Z,1364
2018-02-27T14:15:56.448Z,1316
2018-02-27T14:16:40.146Z,1280
2018-02-27T14:17:23.649Z,1264
2018-02-27T14:18:05.787Z,1256
2018-02-27T14:18:48.610Z,1228
2018-02-27T14:19:30.159Z,1236
2018-02-27T14:20:11.126Z,1220
2018-02-27T14:20:53.505Z,1216
2018-02-27T14:21:34.387Z,1060
2018-02-27T14:22:16.435Z,984
2018-02-27T14:23:00.455Z,1240
2018-02-27T14:23:42.043Z,1232
2018-02-27T14:24:23.184Z,1244
2018-02-27T14:25:05.530Z,1276
2018-02-27T14:25:49.444Z,1268
2018-02-27T14:26:31.396Z,1088
2018-02-27T14:27:14.851Z,1112
2018-02-27T14:27:55.758Z,1392
2018-02-27T14:28:38.765Z,1404
2018-02-27T14:29:23.030Z,1444
2018-02-27T14:31:59.062Z,1452
2018-02-27T14:32:41.586Z,1332
2018-02-27T14:33:24.086Z,1092
2018-02-27T14:34:04.900Z,1060
2018-02-27T14:34:45.935Z,1192
2018-02-27T14:35:27.248Z,1104
2018-02-27T14:36:08.496Z,1216
2018-02-27T14:36:51.739Z,996
2018-02-27T14:37:32.268Z,1192
2018-02-27T14:38:12.987Z,1164
2018-02-27T14:38:53.473Z,1164
2018-02-27T14:39:34.128Z,1128
2018-02-27T14:40:15.477Z,1096
2018-02-27T14:40:56.184Z,1060
2018-02-27T14:41:36.599Z,1044
2018-02-27T14:42:17.168Z,1044
2018-02-27T14:42:57.859Z,940
2018-02-27T14:43:38.606Z,876
2018-02-27T14:44:19.054Z,888
2018-02-27T14:44:59.888Z,900
2018-02-27T14:45:40.246Z,900
2018-02-27T14:46:20.766Z,956
2018-02-27T14:47:01.774Z,952
2018-02-27T14:47:42.165Z,972
2018-02-27T14:48:23.017Z,968
2018-02-27T14:49:03.457Z,988
2018-02-27T14:49:44.061Z,984
2018-02-27T14:50:24.645Z,924
2018-02-27T14:51:05.172Z,944
2018-02-27T14:51:45.610Z,900
2018-02-27T14:52:25.984Z,896
2018-02-27T14:53:06.692Z,864
2018-02-27T14:53:47.274Z,832
2018-02-27T14:54:27.631Z,856
2018-02-27T14:55:08.499Z,848
2018-02-27T14:55:49.103Z,832
2018-02-27T14:56:29.922Z,812
2018-02-27T14:57:10.740Z,792
2018-02-27T14:57:51.243Z,776
2018-02-27T14:58:31.881Z,780
2018-02-27T14:59:12.583Z,776
2018-02-27T14:59:53.094Z,788
2018-02-27T15:00:33.997Z,800
2018-02-27T15:01:14.558Z,780
2018-02-27T15:01:55.687Z,792
2018-02-27T15:02:36.141Z,800
2018-02-27T15:03:16.648Z,800
2018-02-27T15:03:57.366Z,796
2018-02-27T15:04:38.157Z,812
2018-02-27T15:05:18.773Z,816
2018-02-27T15:05:59.312Z,888
2018-02-27T15:06:40.263Z,916
2018-02-27T15:07:20.522Z,852
2018-02-27T15:08:01.205Z,924
2018-02-27T15:08:41.850Z,948
2018-02-27T15:09:22.570Z,940
2018-02-27T15:10:03.097Z,940
2018-02-27T15:10:43.841Z,944
2018-02-27T15:11:24.403Z,944
2018-02-27T15:12:05.014Z,940
2018-02-27T15:12:45.485Z,928
2018-02-27T15:13:26.020Z,916
2018-02-27T15:14:07.098Z,908
2018-02-27T15:14:47.613Z,884
2018-02-27T15:15:28.124Z,912
2018-02-27T15:16:08.659Z,900
2018-02-27T15:16:50.000Z,892
2018-02-27T15:17:30.662Z,896
2018-02-27T15:18:11.566Z,896
2018-02-27T15:18:52.286Z,896
2018-02-27T15:19:32.897Z,880
2018-02-27T15:20:13.458Z,916
2018-02-27T15:20:53.948Z,976
2018-02-27T15:21:34.513Z,996
2018-02-27T15:22:15.544Z,1024
2018-02-27T15:22:55.628Z,1060
2018-02-27T15:23:36.105Z,1168
2018-02-27T15:24:16.826Z,1256
2018-02-27T15:24:57.036Z,1024
2018-02-27T15:25:37.777Z,980
2018-02-27T15:26:18.548Z,948
2018-02-27T15:26:59.453Z,860
2018-02-27T15:27:40.212Z,824
2018-02-27T15:28:20.664Z,792
2018-02-27T15:29:01.283Z,820
2018-02-27T15:29:41.813Z,864
2018-02-27T15:30:24.038Z,936
2018-02-27T15:31:04.610Z,1020
2018-02-27T15:31:45.004Z,1068
2018-02-27T15:32:25.454Z,924
2018-02-27T15:33:05.893Z,908
2018-02-27T15:33:46.449Z,944
2018-02-27T15:34:26.781Z,860
2018-02-27T15:35:07.507Z,872
2018-02-27T15:35:48.050Z,812
2018-02-27T15:36:29.352Z,780
2018-02-27T15:37:11.022Z,856
2018-02-27T15:37:51.296Z,916
2018-02-27T15:38:31.695Z,884
2018-02-27T15:39:12.148Z,856
2018-02-27T15:39:52.577Z,1008
2018-02-27T15:40:32.936Z,924
2018-02-27T15:41:14.205Z,812
2018-02-27T15:41:54.795Z,800
2018-02-27T15:42:35.275Z,1116
2018-02-27T15:43:15.751Z,1160
2018-02-27T15:43:56.301Z,1144
2018-02-27T15:44:36.966Z,1016
2018-02-27T15:45:17.524Z,872
2018-02-27T15:45:58.052Z,808
2018-02-27T15:46:38.414Z,824
2018-02-27T15:47:19.006Z,816
2018-02-27T15:47:59.224Z,816
2018-02-27T15:48:39.611Z,828
2018-02-27T15:49:20.176Z,820
2018-02-27T15:50:00.717Z,808
2018-02-27T15:50:41.200Z,804
2018-02-27T15:51:21.526Z,760
2018-02-27T15:52:02.005Z,772
2018-02-27T15:52:42.557Z,760
2018-02-27T15:53:23.436Z,728
2018-02-27T15:54:06.526Z,704
2018-02-27T15:54:48.064Z,676
2018-02-27T15:55:27.789Z,672
2018-02-27T15:56:08.454Z,672
2018-02-27T15:56:50.110Z,660
2018-02-27T15:57:31.549Z,652
2018-02-27T15:58:11.726Z,640
2018-02-27T15:58:53.552Z,632
2018-02-27T15:59:33.459Z,616
2018-02-27T16:00:15.825Z,608
2018-02-27T16:00:58.227Z,612
2018-02-27T16:01:39.545Z,608
2018-02-27T16:02:21.557Z,600
2018-02-27T16:03:02.164Z,600
2018-02-27T16:03:42.762Z,592
2018-02-27T16:04:23.724Z,592
2018-02-27T16:05:05.258Z,596
2018-02-27T16:05:46.534Z,592
2018-02-27T16:06:27.788Z,592
2018-02-27T16:07:08.162Z,588
2018-02-27T16:07:49.594Z,584
2018-02-27T16:08:29.232Z,580
2018-02-27T16:47:31.682Z,212
2018-02-27T16:48:12.280Z,204
2018-02-27T16:48:52.659Z,200
2018-02-27T16:51:21.785Z,180
2018-02-27T16:52:02.181Z,168
2018-02-27T16:54:14.769Z,148
2018-02-27T16:58:17.620Z,116
2018-02-27T17:04:41.006Z,68
2018-02-27T17:05:21.454Z,64
2018-02-27T17:07:37.053Z,52
2018-02-27T17:08:17.472Z,48
2018-02-27T17:08:57.829Z,44
2018-02-27T17:09:38.191Z,44
2018-02-27T17:10:18.572Z,40
2018-02-27T17:10:58.950Z,36
2018-02-27T17:11:39.337Z,32
2018-02-27T17:12:19.816Z,28
2018-02-27T17:13:00.149Z,28
2018-02-27T17:13:40.577Z,24
2018-02-27T17:14:21.912Z,24
2018-02-27T17:15:02.174Z,24
2018-02-27T17:15:42.572Z,20
2018-02-27T17:16:22.989Z,16
2018-02-27T17:17:03.452Z,16
2018-02-27T17:17:43.793Z,12
2018-02-27T17:18:24.234Z,12
2018-02-27T17:19:04.665Z,12
2018-02-27T17:19:45.089Z,12
2018-02-27T17:20:25.764Z,8
2018-02-27T17:21:06.209Z,8
2018-02-27T17:21:47.525Z,8
2018-02-27T17:22:28.684Z,4
2018-02-27T17:23:09.143Z,8
2018-02-27T17:23:49.570Z,8
2018-02-27T17:24:32.740Z,4
2018-02-27T17:25:13.151Z,8
2018-02-27T17:25:54.847Z,4